sensor_id;sensor_type;location;lat;lon;timestamp;P1;durP1;ratioP1;P2;durP2;ratioP2
56345;SDS011;42246;46.096;13.644;2024-02-16T00:00:00;3.78;;;2.55;;
56345;SDS011;42246;46.096;13.644;2024-02-16T00:02:26;7.80;;;2.50;;
56345;SDS011;42246;46.096;13.644;2024-02-16T00:04:52;4.82;;;2.55;;
56345;SDS011;42246;46.096;13.644;2024-02-16T00:07:17;5.10;;;2.30;;
56345;SDS011;42246;46.096;13.644;2024-02-16T00:09:42;3.92;;;2.13;;
56345;SDS011;42246;46.096;13.644;2024-02-16T00:12:08;4.05;;;2.22;;
56345;SDS011;42246;46.096;13.644;2024-02-16T00:14:33;7.95;;;2.92;;
56345;SDS011;42246;46.096;13.644;2024-02-16T00:16:59;5.47;;;2.40;;
56345;SDS011;42246;46.096;13.644;2024-02-16T00:19:24;3.72;;;1.92;;
56345;SDS011;42246;46.096;13.644;2024-02-16T00:21:50;2.63;;;1.90;;
56345;SDS011;42246;46.096;13.644;2024-02-16T00:24:16;8.43;;;1.67;;
56345;SDS011;42246;46.096;13.644;2024-02-16T00:26:41;4.63;;;2.15;;
56345;SDS011;42246;46.096;13.644;2024-02-16T00:29:08;8.23;;;3.10;;
56345;SDS011;42246;46.096;13.644;2024-02-16T00:31:33;3.58;;;2.20;;
56345;SDS011;42246;46.096;13.644;2024-02-16T00:33:59;3.80;;;2.10;;
56345;SDS011;42246;46.096;13.644;2024-02-16T00:36:26;3.83;;;2.10;;
56345;SDS011;42246;46.096;13.644;2024-02-16T00:38:52;3.58;;;2.13;;
56345;SDS011;42246;46.096;13.644;2024-02-16T00:41:21;3.35;;;1.90;;
56345;SDS011;42246;46.096;13.644;2024-02-16T00:43:47;4.18;;;2.10;;
56345;SDS011;42246;46.096;13.644;2024-02-16T00:46:13;3.53;;;2.30;;
56345;SDS011;42246;46.096;13.644;2024-02-16T00:48:38;3.75;;;2.47;;
56345;SDS011;42246;46.096;13.644;2024-02-16T00:51:04;3.55;;;2.42;;
56345;SDS011;42246;46.096;13.644;2024-02-16T00:53:29;3.75;;;1.83;;
56345;SDS011;42246;46.096;13.644;2024-02-16T00:55:55;4.80;;;1.67;;
56345;SDS011;42246;46.096;13.644;2024-02-16T00:58:20;3.35;;;2.33;;
56345;SDS011;42246;46.096;13.644;2024-02-16T01:00:46;3.63;;;2.15;;
56345;SDS011;42246;46.096;13.644;2024-02-16T01:03:12;5.20;;;1.90;;
56345;SDS011;42246;46.096;13.644;2024-02-16T01:05:40;8.60;;;1.80;;
56345;SDS011;42246;46.096;13.644;2024-02-16T01:08:06;5.38;;;2.35;;
56345;SDS011;42246;46.096;13.644;2024-02-16T01:10:32;7.45;;;1.92;;
56345;SDS011;42246;46.096;13.644;2024-02-16T01:12:57;4.28;;;1.45;;
56345;SDS011;42246;46.096;13.644;2024-02-16T01:15:23;4.13;;;1.88;;
56345;SDS011;42246;46.096;13.644;2024-02-16T01:17:48;2.58;;;1.75;;
56345;SDS011;42246;46.096;13.644;2024-02-16T01:20:14;5.53;;;2.03;;
56345;SDS011;42246;46.096;13.644;2024-02-16T01:22:40;4.55;;;1.73;;
56345;SDS011;42246;46.096;13.644;2024-02-16T01:25:07;8.23;;;2.72;;
56345;SDS011;42246;46.096;13.644;2024-02-16T01:27:33;2.13;;;1.42;;
56345;SDS011;42246;46.096;13.644;2024-02-16T01:30:00;2.47;;;1.30;;
56345;SDS011;42246;46.096;13.644;2024-02-16T01:32:26;6.90;;;2.20;;
56345;SDS011;42246;46.096;13.644;2024-02-16T01:34:51;4.65;;;2.17;;
56345;SDS011;42246;46.096;13.644;2024-02-16T01:37:17;6.80;;;2.13;;
56345;SDS011;42246;46.096;13.644;2024-02-16T01:39:43;4.70;;;2.70;;
56345;SDS011;42246;46.096;13.644;2024-02-16T01:42:09;2.90;;;1.45;;
56345;SDS011;42246;46.096;13.644;2024-02-16T01:44:35;6.53;;;2.47;;
56345;SDS011;42246;46.096;13.644;2024-02-16T01:47:01;2.55;;;1.70;;
56345;SDS011;42246;46.096;13.644;2024-02-16T01:49:26;5.30;;;2.05;;
56345;SDS011;42246;46.096;13.644;2024-02-16T01:51:52;5.05;;;1.50;;
56345;SDS011;42246;46.096;13.644;2024-02-16T01:54:17;4.45;;;1.85;;
56345;SDS011;42246;46.096;13.644;2024-02-16T01:56:43;2.22;;;1.80;;
56345;SDS011;42246;46.096;13.644;2024-02-16T01:59:09;3.70;;;1.80;;
56345;SDS011;42246;46.096;13.644;2024-02-16T02:01:35;6.95;;;2.08;;
56345;SDS011;42246;46.096;13.644;2024-02-16T02:04:01;4.03;;;1.80;;
56345;SDS011;42246;46.096;13.644;2024-02-16T02:06:27;2.17;;;1.65;;
56345;SDS011;42246;46.096;13.644;2024-02-16T02:08:52;2.85;;;1.42;;
56345;SDS011;42246;46.096;13.644;2024-02-16T02:11:18;3.28;;;1.95;;
56345;SDS011;42246;46.096;13.644;2024-02-16T02:13:43;7.55;;;2.22;;
56345;SDS011;42246;46.096;13.644;2024-02-16T02:16:09;5.63;;;2.03;;
56345;SDS011;42246;46.096;13.644;2024-02-16T02:18:35;2.83;;;1.88;;
56345;SDS011;42246;46.096;13.644;2024-02-16T02:21:01;2.85;;;1.50;;
56345;SDS011;42246;46.096;13.644;2024-02-16T02:23:26;4.97;;;2.10;;
56345;SDS011;42246;46.096;13.644;2024-02-16T02:25:52;3.72;;;2.50;;
56345;SDS011;42246;46.096;13.644;2024-02-16T02:28:18;5.28;;;2.25;;
56345;SDS011;42246;46.096;13.644;2024-02-16T02:30:43;3.72;;;2.25;;
56345;SDS011;42246;46.096;13.644;2024-02-16T02:33:12;4.50;;;1.90;;
56345;SDS011;42246;46.096;13.644;2024-02-16T02:35:39;7.13;;;1.88;;
56345;SDS011;42246;46.096;13.644;2024-02-16T02:38:04;10.98;;;2.30;;
56345;SDS011;42246;46.096;13.644;2024-02-16T02:40:30;7.20;;;2.28;;
56345;SDS011;42246;46.096;13.644;2024-02-16T02:42:57;2.50;;;1.83;;
56345;SDS011;42246;46.096;13.644;2024-02-16T02:45:23;6.75;;;2.70;;
56345;SDS011;42246;46.096;13.644;2024-02-16T02:47:48;3.13;;;2.38;;
56345;SDS011;42246;46.096;13.644;2024-02-16T02:50:14;3.90;;;2.13;;
56345;SDS011;42246;46.096;13.644;2024-02-16T02:52:39;3.85;;;1.58;;
56345;SDS011;42246;46.096;13.644;2024-02-16T02:55:05;5.10;;;1.58;;
56345;SDS011;42246;46.096;13.644;2024-02-16T02:57:31;2.28;;;1.45;;
56345;SDS011;42246;46.096;13.644;2024-02-16T03:00:03;2.53;;;1.67;;
56345;SDS011;42246;46.096;13.644;2024-02-16T03:02:31;5.03;;;1.95;;
56345;SDS011;42246;46.096;13.644;2024-02-16T03:04:57;5.40;;;2.28;;
56345;SDS011;42246;46.096;13.644;2024-02-16T03:07:22;4.25;;;2.00;;
56345;SDS011;42246;46.096;13.644;2024-02-16T03:09:48;3.28;;;2.30;;
56345;SDS011;42246;46.096;13.644;2024-02-16T03:12:13;1.92;;;1.52;;
56345;SDS011;42246;46.096;13.644;2024-02-16T03:14:39;5.15;;;1.73;;
56345;SDS011;42246;46.096;13.644;2024-02-16T03:17:04;4.22;;;1.80;;
56345;SDS011;42246;46.096;13.644;2024-02-16T03:19:29;5.70;;;2.70;;
56345;SDS011;42246;46.096;13.644;2024-02-16T03:21:55;3.15;;;1.80;;
56345;SDS011;42246;46.096;13.644;2024-02-16T03:24:20;2.55;;;1.80;;
56345;SDS011;42246;46.096;13.644;2024-02-16T03:26:47;2.63;;;2.00;;
56345;SDS011;42246;46.096;13.644;2024-02-16T03:29:13;10.05;;;2.10;;
56345;SDS011;42246;46.096;13.644;2024-02-16T03:31:38;4.72;;;1.73;;
56345;SDS011;42246;46.096;13.644;2024-02-16T03:34:04;14.15;;;2.13;;
56345;SDS011;42246;46.096;13.644;2024-02-16T03:36:29;4.50;;;2.00;;
56345;SDS011;42246;46.096;13.644;2024-02-16T03:38:55;5.38;;;2.80;;
56345;SDS011;42246;46.096;13.644;2024-02-16T03:41:21;4.10;;;1.65;;
56345;SDS011;42246;46.096;13.644;2024-02-16T03:43:48;4.22;;;2.13;;
56345;SDS011;42246;46.096;13.644;2024-02-16T03:46:14;2.42;;;1.40;;
56345;SDS011;42246;46.096;13.644;2024-02-16T03:48:39;3.97;;;2.40;;
56345;SDS011;42246;46.096;13.644;2024-02-16T03:51:05;5.72;;;1.88;;
56345;SDS011;42246;46.096;13.644;2024-02-16T03:53:31;4.28;;;1.67;;
56345;SDS011;42246;46.096;13.644;2024-02-16T03:55:56;4.70;;;2.22;;
56345;SDS011;42246;46.096;13.644;2024-02-16T03:58:22;5.35;;;2.35;;
56345;SDS011;42246;46.096;13.644;2024-02-16T04:00:48;4.13;;;1.55;;
56345;SDS011;42246;46.096;13.644;2024-02-16T04:03:17;6.78;;;1.92;;
56345;SDS011;42246;46.096;13.644;2024-02-16T04:05:43;5.85;;;2.78;;
56345;SDS011;42246;46.096;13.644;2024-02-16T04:08:09;2.65;;;1.98;;
56345;SDS011;42246;46.096;13.644;2024-02-16T04:10:34;2.63;;;1.40;;
56345;SDS011;42246;46.096;13.644;2024-02-16T04:13:00;3.35;;;1.52;;
56345;SDS011;42246;46.096;13.644;2024-02-16T04:15:26;4.18;;;2.20;;
56345;SDS011;42246;46.096;13.644;2024-02-16T04:17:52;5.85;;;1.65;;
56345;SDS011;42246;46.096;13.644;2024-02-16T04:20:18;4.93;;;2.67;;
56345;SDS011;42246;46.096;13.644;2024-02-16T04:22:44;3.67;;;1.98;;
56345;SDS011;42246;46.096;13.644;2024-02-16T04:25:10;4.90;;;2.10;;
56345;SDS011;42246;46.096;13.644;2024-02-16T04:27:35;5.43;;;1.98;;
56345;SDS011;42246;46.096;13.644;2024-02-16T04:30:02;2.70;;;1.80;;
56345;SDS011;42246;46.096;13.644;2024-02-16T04:32:28;3.20;;;2.08;;
56345;SDS011;42246;46.096;13.644;2024-02-16T04:34:53;6.13;;;2.50;;
56345;SDS011;42246;46.096;13.644;2024-02-16T04:37:21;4.72;;;2.22;;
56345;SDS011;42246;46.096;13.644;2024-02-16T04:39:46;5.50;;;1.67;;
56345;SDS011;42246;46.096;13.644;2024-02-16T04:42:12;3.47;;;1.95;;
56345;SDS011;42246;46.096;13.644;2024-02-16T04:44:38;5.05;;;1.83;;
56345;SDS011;42246;46.096;13.644;2024-02-16T04:47:04;4.95;;;2.03;;
56345;SDS011;42246;46.096;13.644;2024-02-16T04:49:29;2.63;;;1.58;;
56345;SDS011;42246;46.096;13.644;2024-02-16T04:51:55;3.95;;;2.42;;
56345;SDS011;42246;46.096;13.644;2024-02-16T04:54:20;4.30;;;1.63;;
56345;SDS011;42246;46.096;13.644;2024-02-16T04:56:46;2.95;;;1.85;;
56345;SDS011;42246;46.096;13.644;2024-02-16T04:59:11;2.88;;;1.25;;
56345;SDS011;42246;46.096;13.644;2024-02-16T05:01:37;5.32;;;2.50;;
56345;SDS011;42246;46.096;13.644;2024-02-16T05:04:02;7.55;;;2.33;;
56345;SDS011;42246;46.096;13.644;2024-02-16T05:06:28;3.25;;;1.73;;
56345;SDS011;42246;46.096;13.644;2024-02-16T05:08:55;6.25;;;1.70;;
56345;SDS011;42246;46.096;13.644;2024-02-16T05:11:21;4.05;;;2.83;;
56345;SDS011;42246;46.096;13.644;2024-02-16T05:13:49;5.47;;;2.53;;
56345;SDS011;42246;46.096;13.644;2024-02-16T05:16:15;5.13;;;3.00;;
56345;SDS011;42246;46.096;13.644;2024-02-16T05:18:41;6.97;;;2.35;;
56345;SDS011;42246;46.096;13.644;2024-02-16T05:21:07;4.93;;;2.92;;
56345;SDS011;42246;46.096;13.644;2024-02-16T05:23:32;7.78;;;2.92;;
56345;SDS011;42246;46.096;13.644;2024-02-16T05:25:58;9.38;;;2.67;;
56345;SDS011;42246;46.096;13.644;2024-02-16T05:28:23;4.50;;;2.25;;
56345;SDS011;42246;46.096;13.644;2024-02-16T05:30:49;5.10;;;2.47;;
56345;SDS011;42246;46.096;13.644;2024-02-16T05:33:14;3.90;;;2.40;;
56345;SDS011;42246;46.096;13.644;2024-02-16T05:35:40;3.88;;;2.28;;
56345;SDS011;42246;46.096;13.644;2024-02-16T05:38:06;3.38;;;2.10;;
56345;SDS011;42246;46.096;13.644;2024-02-16T05:40:46;3.38;;;1.75;;
56345;SDS011;42246;46.096;13.644;2024-02-16T05:43:22;2.13;;;1.55;;
56345;SDS011;42246;46.096;13.644;2024-02-16T05:45:48;11.68;;;2.05;;
56345;SDS011;42246;46.096;13.644;2024-02-16T05:48:14;5.32;;;1.33;;
56345;SDS011;42246;46.096;13.644;2024-02-16T05:50:40;3.92;;;2.47;;
56345;SDS011;42246;46.096;13.644;2024-02-16T05:53:06;4.07;;;1.90;;
56345;SDS011;42246;46.096;13.644;2024-02-16T05:55:31;8.98;;;2.67;;
56345;SDS011;42246;46.096;13.644;2024-02-16T05:57:57;3.10;;;1.75;;
56345;SDS011;42246;46.096;13.644;2024-02-16T06:00:23;5.07;;;1.73;;
56345;SDS011;42246;46.096;13.644;2024-02-16T06:02:48;2.30;;;1.63;;
56345;SDS011;42246;46.096;13.644;2024-02-16T06:05:14;7.10;;;2.08;;
56345;SDS011;42246;46.096;13.644;2024-02-16T06:07:39;4.20;;;2.92;;
56345;SDS011;42246;46.096;13.644;2024-02-16T06:10:05;2.20;;;1.63;;
56345;SDS011;42246;46.096;13.644;2024-02-16T06:12:38;6.28;;;2.38;;
56345;SDS011;42246;46.096;13.644;2024-02-16T06:15:04;2.60;;;1.83;;
56345;SDS011;42246;46.096;13.644;2024-02-16T06:17:30;3.55;;;1.92;;
56345;SDS011;42246;46.096;13.644;2024-02-16T06:19:56;2.78;;;1.98;;
56345;SDS011;42246;46.096;13.644;2024-02-16T06:22:21;3.40;;;2.30;;
56345;SDS011;42246;46.096;13.644;2024-02-16T06:24:47;4.60;;;1.83;;
56345;SDS011;42246;46.096;13.644;2024-02-16T06:27:12;7.90;;;1.80;;
56345;SDS011;42246;46.096;13.644;2024-02-16T06:29:38;6.07;;;2.30;;
56345;SDS011;42246;46.096;13.644;2024-02-16T06:32:03;9.02;;;3.75;;
56345;SDS011;42246;46.096;13.644;2024-02-16T06:34:30;11.10;;;5.05;;
56345;SDS011;42246;46.096;13.644;2024-02-16T06:36:56;6.05;;;3.50;;
56345;SDS011;42246;46.096;13.644;2024-02-16T06:39:21;4.93;;;2.67;;
56345;SDS011;42246;46.096;13.644;2024-02-16T06:41:47;5.10;;;1.80;;
56345;SDS011;42246;46.096;13.644;2024-02-16T06:44:14;2.42;;;1.25;;
56345;SDS011;42246;46.096;13.644;2024-02-16T06:46:40;2.03;;;1.48;;
56345;SDS011;42246;46.096;13.644;2024-02-16T06:49:05;17.58;;;10.90;;
56345;SDS011;42246;46.096;13.644;2024-02-16T06:51:31;4.13;;;2.38;;
56345;SDS011;42246;46.096;13.644;2024-02-16T06:53:56;9.30;;;2.10;;
56345;SDS011;42246;46.096;13.644;2024-02-16T06:56:22;3.20;;;1.58;;
56345;SDS011;42246;46.096;13.644;2024-02-16T06:58:48;5.28;;;2.30;;
56345;SDS011;42246;46.096;13.644;2024-02-16T07:01:13;6.60;;;2.05;;
56345;SDS011;42246;46.096;13.644;2024-02-16T07:03:39;4.78;;;2.95;;
56345;SDS011;42246;46.096;13.644;2024-02-16T07:06:06;6.53;;;3.20;;
56345;SDS011;42246;46.096;13.644;2024-02-16T07:08:35;5.68;;;2.63;;
56345;SDS011;42246;46.096;13.644;2024-02-16T07:11:03;3.05;;;2.20;;
56345;SDS011;42246;46.096;13.644;2024-02-16T07:13:29;6.47;;;2.03;;
56345;SDS011;42246;46.096;13.644;2024-02-16T07:15:56;6.68;;;2.72;;
56345;SDS011;42246;46.096;13.644;2024-02-16T07:18:22;3.47;;;2.42;;
56345;SDS011;42246;46.096;13.644;2024-02-16T07:20:47;3.42;;;2.90;;
56345;SDS011;42246;46.096;13.644;2024-02-16T07:23:13;4.45;;;2.78;;
56345;SDS011;42246;46.096;13.644;2024-02-16T07:25:40;3.22;;;1.63;;
56345;SDS011;42246;46.096;13.644;2024-02-16T07:28:06;4.00;;;2.75;;
56345;SDS011;42246;46.096;13.644;2024-02-16T07:30:33;8.23;;;2.85;;
56345;SDS011;42246;46.096;13.644;2024-02-16T07:32:58;4.90;;;2.60;;
56345;SDS011;42246;46.096;13.644;2024-02-16T07:35:24;8.10;;;2.88;;
56345;SDS011;42246;46.096;13.644;2024-02-16T07:37:50;5.65;;;2.60;;
56345;SDS011;42246;46.096;13.644;2024-02-16T07:40:19;4.07;;;2.60;;
56345;SDS011;42246;46.096;13.644;2024-02-16T07:42:45;6.95;;;1.33;;
56345;SDS011;42246;46.096;13.644;2024-02-16T07:45:11;5.20;;;2.85;;
56345;SDS011;42246;46.096;13.644;2024-02-16T07:47:37;2.60;;;1.85;;
56345;SDS011;42246;46.096;13.644;2024-02-16T07:50:05;3.95;;;2.28;;
56345;SDS011;42246;46.096;13.644;2024-02-16T07:52:31;6.10;;;2.45;;
56345;SDS011;42246;46.096;13.644;2024-02-16T07:54:57;3.17;;;1.45;;
56345;SDS011;42246;46.096;13.644;2024-02-16T07:57:23;3.22;;;1.13;;
56345;SDS011;42246;46.096;13.644;2024-02-16T07:59:49;3.47;;;1.40;;
56345;SDS011;42246;46.096;13.644;2024-02-16T08:02:14;3.88;;;1.38;;
56345;SDS011;42246;46.096;13.644;2024-02-16T08:04:41;2.10;;;1.13;;
56345;SDS011;42246;46.096;13.644;2024-02-16T08:07:07;5.97;;;1.25;;
56345;SDS011;42246;46.096;13.644;2024-02-16T08:09:33;3.58;;;2.17;;
56345;SDS011;42246;46.096;13.644;2024-02-16T08:11:58;6.63;;;2.08;;
56345;SDS011;42246;46.096;13.644;2024-02-16T08:14:25;1.90;;;0.70;;
56345;SDS011;42246;46.096;13.644;2024-02-16T08:16:50;2.83;;;1.30;;
56345;SDS011;42246;46.096;13.644;2024-02-16T08:19:16;2.75;;;1.27;;
56345;SDS011;42246;46.096;13.644;2024-02-16T08:21:41;3.33;;;1.15;;
56345;SDS011;42246;46.096;13.644;2024-02-16T08:24:06;4.25;;;1.30;;
56345;SDS011;42246;46.096;13.644;2024-02-16T08:26:32;2.50;;;1.30;;
56345;SDS011;42246;46.096;13.644;2024-02-16T08:28:58;2.97;;;1.00;;
56345;SDS011;42246;46.096;13.644;2024-02-16T08:31:24;1.50;;;1.20;;
56345;SDS011;42246;46.096;13.644;2024-02-16T08:33:50;2.30;;;0.98;;
56345;SDS011;42246;46.096;13.644;2024-02-16T08:36:15;2.78;;;1.35;;
56345;SDS011;42246;46.096;13.644;2024-02-16T08:38:41;2.60;;;1.08;;
56345;SDS011;42246;46.096;13.644;2024-02-16T08:41:06;2.15;;;1.25;;
56345;SDS011;42246;46.096;13.644;2024-02-16T08:43:32;1.95;;;1.15;;
56345;SDS011;42246;46.096;13.644;2024-02-16T08:45:57;2.25;;;0.82;;
56345;SDS011;42246;46.096;13.644;2024-02-16T08:48:24;2.92;;;1.20;;
56345;SDS011;42246;46.096;13.644;2024-02-16T08:50:49;1.75;;;0.90;;
56345;SDS011;42246;46.096;13.644;2024-02-16T08:53:15;4.03;;;1.60;;
56345;SDS011;42246;46.096;13.644;2024-02-16T08:55:42;2.60;;;0.80;;
56345;SDS011;42246;46.096;13.644;2024-02-16T08:58:07;2.08;;;1.05;;
56345;SDS011;42246;46.096;13.644;2024-02-16T09:00:33;4.38;;;1.00;;
56345;SDS011;42246;46.096;13.644;2024-02-16T09:02:59;3.20;;;1.48;;
56345;SDS011;42246;46.096;13.644;2024-02-16T09:05:27;5.05;;;0.88;;
56345;SDS011;42246;46.096;13.644;2024-02-16T09:07:53;2.90;;;1.10;;
56345;SDS011;42246;46.096;13.644;2024-02-16T09:10:18;3.90;;;0.88;;
56345;SDS011;42246;46.096;13.644;2024-02-16T09:12:43;2.40;;;1.13;;
56345;SDS011;42246;46.096;13.644;2024-02-16T09:15:09;3.10;;;0.90;;
56345;SDS011;42246;46.096;13.644;2024-02-16T09:17:35;2.05;;;0.80;;
56345;SDS011;42246;46.096;13.644;2024-02-16T09:20:00;1.98;;;0.65;;
56345;SDS011;42246;46.096;13.644;2024-02-16T09:22:28;3.80;;;1.60;;
56345;SDS011;42246;46.096;13.644;2024-02-16T09:24:53;3.88;;;1.65;;
56345;SDS011;42246;46.096;13.644;2024-02-16T09:27:19;4.05;;;1.75;;
56345;SDS011;42246;46.096;13.644;2024-02-16T09:29:46;4.43;;;2.78;;
56345;SDS011;42246;46.096;13.644;2024-02-16T09:32:12;2.95;;;1.17;;
56345;SDS011;42246;46.096;13.644;2024-02-16T09:34:37;4.00;;;1.85;;
56345;SDS011;42246;46.096;13.644;2024-02-16T09:37:03;7.50;;;2.10;;
56345;SDS011;42246;46.096;13.644;2024-02-16T09:39:29;2.85;;;1.45;;
56345;SDS011;42246;46.096;13.644;2024-02-16T09:41:55;2.47;;;0.82;;
56345;SDS011;42246;46.096;13.644;2024-02-16T09:44:22;0.98;;;0.65;;
56345;SDS011;42246;46.096;13.644;2024-02-16T09:46:47;3.67;;;1.15;;
56345;SDS011;42246;46.096;13.644;2024-02-16T09:49:13;3.05;;;1.45;;
56345;SDS011;42246;46.096;13.644;2024-02-16T09:51:38;4.10;;;1.88;;
56345;SDS011;42246;46.096;13.644;2024-02-16T09:54:04;4.00;;;1.55;;
56345;SDS011;42246;46.096;13.644;2024-02-16T09:56:30;3.33;;;1.42;;
56345;SDS011;42246;46.096;13.644;2024-02-16T09:58:55;1.30;;;1.10;;
56345;SDS011;42246;46.096;13.644;2024-02-16T10:01:21;1.80;;;1.25;;
56345;SDS011;42246;46.096;13.644;2024-02-16T10:03:48;2.15;;;1.25;;
56345;SDS011;42246;46.096;13.644;2024-02-16T10:06:14;4.65;;;1.58;;
56345;SDS011;42246;46.096;13.644;2024-02-16T10:08:47;1.92;;;1.00;;
56345;SDS011;42246;46.096;13.644;2024-02-16T10:11:17;1.75;;;0.60;;
56345;SDS011;42246;46.096;13.644;2024-02-16T10:13:55;3.03;;;1.35;;
56345;SDS011;42246;46.096;13.644;2024-02-16T10:16:21;1.58;;;0.85;;
56345;SDS011;42246;46.096;13.644;2024-02-16T10:18:47;1.27;;;1.00;;
56345;SDS011;42246;46.096;13.644;2024-02-16T10:21:12;2.03;;;0.90;;
56345;SDS011;42246;46.096;13.644;2024-02-16T10:23:38;4.65;;;2.72;;
56345;SDS011;42246;46.096;13.644;2024-02-16T10:26:03;3.60;;;2.25;;
56345;SDS011;42246;46.096;13.644;2024-02-16T10:28:29;5.00;;;1.35;;
56345;SDS011;42246;46.096;13.644;2024-02-16T10:30:59;3.15;;;1.10;;
56345;SDS011;42246;46.096;13.644;2024-02-16T10:33:29;1.83;;;0.63;;
56345;SDS011;42246;46.096;13.644;2024-02-16T10:35:57;1.40;;;0.77;;
56345;SDS011;42246;46.096;13.644;2024-02-16T10:38:23;1.35;;;0.73;;
56345;SDS011;42246;46.096;13.644;2024-02-16T10:40:48;2.38;;;0.50;;
56345;SDS011;42246;46.096;13.644;2024-02-16T10:43:16;1.33;;;0.70;;
56345;SDS011;42246;46.096;13.644;2024-02-16T10:45:43;1.02;;;0.77;;
56345;SDS011;42246;46.096;13.644;2024-02-16T10:48:10;1.45;;;0.73;;
56345;SDS011;42246;46.096;13.644;2024-02-16T10:50:36;0.95;;;0.70;;
56345;SDS011;42246;46.096;13.644;2024-02-16T10:53:24;1.50;;;0.77;;
56345;SDS011;42246;46.096;13.644;2024-02-16T10:55:49;0.63;;;0.40;;
56345;SDS011;42246;46.096;13.644;2024-02-16T10:58:16;2.25;;;0.73;;
56345;SDS011;42246;46.096;13.644;2024-02-16T11:00:52;2.60;;;1.35;;
56345;SDS011;42246;46.096;13.644;2024-02-16T11:03:21;0.93;;;0.70;;
56345;SDS011;42246;46.096;13.644;2024-02-16T11:05:51;5.20;;;2.22;;
56345;SDS011;42246;46.096;13.644;2024-02-16T11:08:18;3.47;;;1.45;;
56345;SDS011;42246;46.096;13.644;2024-02-16T11:10:57;4.45;;;1.73;;
56345;SDS011;42246;46.096;13.644;2024-02-16T11:13:27;3.72;;;1.60;;
56345;SDS011;42246;46.096;13.644;2024-02-16T11:16:12;2.25;;;1.40;;
56345;SDS011;42246;46.096;13.644;2024-02-16T11:18:42;2.53;;;0.90;;
56345;SDS011;42246;46.096;13.644;2024-02-16T11:21:14;6.05;;;1.38;;
56345;SDS011;42246;46.096;13.644;2024-02-16T11:23:40;1.92;;;0.73;;
56345;SDS011;42246;46.096;13.644;2024-02-16T11:26:08;1.40;;;1.00;;
56345;SDS011;42246;46.096;13.644;2024-02-16T11:28:38;6.00;;;2.47;;
56345;SDS011;42246;46.096;13.644;2024-02-16T11:31:05;12.25;;;4.65;;
56345;SDS011;42246;46.096;13.644;2024-02-16T11:33:32;11.82;;;6.70;;
56345;SDS011;42246;46.096;13.644;2024-02-16T11:35:58;16.65;;;8.10;;
56345;SDS011;42246;46.096;13.644;2024-02-16T11:38:30;49.47;;;23.65;;
56345;SDS011;42246;46.096;13.644;2024-02-16T11:40:57;28.55;;;14.05;;
56345;SDS011;42246;46.096;13.644;2024-02-16T11:43:30;25.75;;;12.63;;
56345;SDS011;42246;46.096;13.644;2024-02-16T11:45:57;28.17;;;16.58;;
56345;SDS011;42246;46.096;13.644;2024-02-16T11:48:24;19.05;;;11.77;;
56345;SDS011;42246;46.096;13.644;2024-02-16T11:51:02;13.10;;;6.95;;
56345;SDS011;42246;46.096;13.644;2024-02-16T11:53:29;9.75;;;3.95;;
56345;SDS011;42246;46.096;13.644;2024-02-16T11:55:54;9.73;;;4.85;;
56345;SDS011;42246;46.096;13.644;2024-02-16T11:58:20;7.00;;;3.53;;
56345;SDS011;42246;46.096;13.644;2024-02-16T12:00:46;7.80;;;3.28;;
56345;SDS011;42246;46.096;13.644;2024-02-16T12:03:18;8.63;;;3.58;;
56345;SDS011;42246;46.096;13.644;2024-02-16T12:05:50;7.07;;;2.72;;
56345;SDS011;42246;46.096;13.644;2024-02-16T12:08:19;8.82;;;4.00;;
56345;SDS011;42246;46.096;13.644;2024-02-16T12:10:48;7.32;;;2.60;;
56345;SDS011;42246;46.096;13.644;2024-02-16T12:13:18;10.57;;;3.53;;
56345;SDS011;42246;46.096;13.644;2024-02-16T12:15:45;5.90;;;3.65;;
56345;SDS011;42246;46.096;13.644;2024-02-16T12:18:22;4.28;;;2.05;;
56345;SDS011;42246;46.096;13.644;2024-02-16T12:21:03;4.95;;;2.65;;
56345;SDS011;42246;46.096;13.644;2024-02-16T12:23:31;6.80;;;3.58;;
56345;SDS011;42246;46.096;13.644;2024-02-16T12:25:57;6.78;;;3.63;;
56345;SDS011;42246;46.096;13.644;2024-02-16T12:28:26;4.55;;;2.83;;
56345;SDS011;42246;46.096;13.644;2024-02-16T12:30:53;5.53;;;2.92;;
56345;SDS011;42246;46.096;13.644;2024-02-16T12:33:22;4.50;;;2.67;;
56345;SDS011;42246;46.096;13.644;2024-02-16T12:35:47;5.03;;;3.60;;
56345;SDS011;42246;46.096;13.644;2024-02-16T12:38:13;4.32;;;2.60;;
56345;SDS011;42246;46.096;13.644;2024-02-16T12:40:38;4.70;;;2.65;;
56345;SDS011;42246;46.096;13.644;2024-02-16T12:43:05;7.63;;;3.42;;
56345;SDS011;42246;46.096;13.644;2024-02-16T12:45:33;6.32;;;3.08;;
56345;SDS011;42246;46.096;13.644;2024-02-16T12:47:59;4.82;;;3.03;;
56345;SDS011;42246;46.096;13.644;2024-02-16T12:50:24;5.55;;;3.08;;
56345;SDS011;42246;46.096;13.644;2024-02-16T12:52:50;6.13;;;2.92;;
56345;SDS011;42246;46.096;13.644;2024-02-16T12:55:15;6.30;;;3.38;;
56345;SDS011;42246;46.096;13.644;2024-02-16T12:57:41;5.57;;;2.35;;
56345;SDS011;42246;46.096;13.644;2024-02-16T13:00:06;4.15;;;2.80;;
56345;SDS011;42246;46.096;13.644;2024-02-16T13:02:32;5.63;;;2.40;;
56345;SDS011;42246;46.096;13.644;2024-02-16T13:04:58;6.90;;;3.28;;
56345;SDS011;42246;46.096;13.644;2024-02-16T13:07:23;6.20;;;3.38;;
56345;SDS011;42246;46.096;13.644;2024-02-16T13:09:49;4.43;;;2.97;;
56345;SDS011;42246;46.096;13.644;2024-02-16T13:12:16;5.07;;;2.45;;
56345;SDS011;42246;46.096;13.644;2024-02-16T13:14:42;5.57;;;3.47;;
56345;SDS011;42246;46.096;13.644;2024-02-16T13:17:07;5.18;;;2.38;;
56345;SDS011;42246;46.096;13.644;2024-02-16T13:19:33;8.70;;;3.63;;
56345;SDS011;42246;46.096;13.644;2024-02-16T13:21:58;5.63;;;3.33;;
56345;SDS011;42246;46.096;13.644;2024-02-16T13:24:23;6.40;;;3.22;;
56345;SDS011;42246;46.096;13.644;2024-02-16T13:26:49;5.95;;;2.53;;
56345;SDS011;42246;46.096;13.644;2024-02-16T13:29:15;10.43;;;4.45;;
56345;SDS011;42246;46.096;13.644;2024-02-16T13:31:40;11.75;;;6.00;;
56345;SDS011;42246;46.096;13.644;2024-02-16T13:34:07;3.85;;;2.25;;
56345;SDS011;42246;46.096;13.644;2024-02-16T13:36:33;6.32;;;3.25;;
56345;SDS011;42246;46.096;13.644;2024-02-16T13:38:58;7.00;;;3.30;;
56345;SDS011;42246;46.096;13.644;2024-02-16T13:41:24;6.60;;;3.70;;
56345;SDS011;42246;46.096;13.644;2024-02-16T13:43:50;7.43;;;3.92;;
56345;SDS011;42246;46.096;13.644;2024-02-16T13:46:16;9.07;;;3.47;;
56345;SDS011;42246;46.096;13.644;2024-02-16T13:48:42;8.18;;;3.50;;
56345;SDS011;42246;46.096;13.644;2024-02-16T13:51:08;7.07;;;4.10;;
56345;SDS011;42246;46.096;13.644;2024-02-16T13:53:33;7.95;;;3.05;;
56345;SDS011;42246;46.096;13.644;2024-02-16T13:55:59;5.20;;;3.00;;
56345;SDS011;42246;46.096;13.644;2024-02-16T13:58:29;7.75;;;3.58;;
56345;SDS011;42246;46.096;13.644;2024-02-16T14:00:55;7.70;;;3.35;;
56345;SDS011;42246;46.096;13.644;2024-02-16T14:03:21;8.38;;;3.78;;
56345;SDS011;42246;46.096;13.644;2024-02-16T14:05:46;5.63;;;2.97;;
56345;SDS011;42246;46.096;13.644;2024-02-16T14:08:12;4.97;;;3.13;;
56345;SDS011;42246;46.096;13.644;2024-02-16T14:10:39;7.47;;;3.60;;
56345;SDS011;42246;46.096;13.644;2024-02-16T14:13:05;5.55;;;2.97;;
56345;SDS011;42246;46.096;13.644;2024-02-16T14:15:31;5.57;;;3.38;;
56345;SDS011;42246;46.096;13.644;2024-02-16T14:17:56;7.72;;;3.47;;
56345;SDS011;42246;46.096;13.644;2024-02-16T14:20:21;6.88;;;3.58;;
56345;SDS011;42246;46.096;13.644;2024-02-16T14:22:48;6.05;;;2.90;;
56345;SDS011;42246;46.096;13.644;2024-02-16T14:25:13;6.22;;;3.35;;
56345;SDS011;42246;46.096;13.644;2024-02-16T14:27:39;7.32;;;3.20;;